Time;durP1;ratioP1;P1;durP2;ratioP2;P2;SDS_P1;SDS_P2;PMS_P1;PMS_P2;Temp;Humidity;BMP_temperature;BMP_pressure;BME280_temperature;BME280_humidity;BME280_pressure;Samples;Min_cycle;Max_cycle;Signal;HPM_P1;HPM_P2
2022/04/27 00:01:51;;;;;;;42.03;22.50;;;6.10;1.00;;;;;;10488008;28;20221;-79
2022/04/27 00:07:47;;;;;;;32.13;18.90;;;6.30;1.00;;;;;;10482701;28;20203;-79
2022/04/27 00:13:16;;;;;;;32.30;19.13;;;6.40;1.00;;;;;;10520811;28;20277;-80
2022/04/27 00:18:38;;;;;;;34.67;18.40;;;6.40;1.00;;;;;;10482683;28;20198;-80
2022/04/27 00:23:59;;;;;;;32.00;18.77;;;6.40;1.00;;;;;;10495592;28;20453;-80
2022/04/27 00:29:21;;;;;;;34.37;19.07;;;6.40;1.00;;;;;;10505859;28;20421;-80
2022/04/27 00:34:42;;;;;;;34.43;18.90;;;6.40;1.00;;;;;;10497427;28;20199;-79
2022/04/27 00:40:04;;;;;;;31.63;19.67;;;6.40;1.00;;;;;;10464320;28;20275;-80
2022/04/27 00:45:25;;;;;;;35.30;19.73;;;6.40;1.00;;;;;;10505167;28;20196;-80
2022/04/27 00:50:46;;;;;;;35.67;20.33;;;6.40;1.00;;;;;;10519350;28;20539;-80
2022/04/27 00:56:09;;;;;;;41.13;21.47;;;6.20;1.00;;;;;;10485869;28;20384;-79
2022/04/27 01:01:33;;;;;;;37.90;21.30;;;6.10;1.00;;;;;;10449859;28;20404;-80
2022/04/27 01:06:54;;;;;;;39.47;21.17;;;6.00;1.00;;;;;;10503317;28;20208;-79
2022/04/27 01:12:17;;;;;;;34.37;19.70;;;5.80;1.00;;;;;;10506551;28;20224;-79
2022/04/27 01:17:49;;;;;;;38.03;19.73;;;5.80;1.00;;;;;;10474549;28;20540;-80
2022/04/27 01:23:14;;;;;;;38.00;19.90;;;5.80;1.00;;;;;;10471015;28;20225;-79
2022/04/27 01:28:38;;;;;;;36.97;20.33;;;5.80;1.00;;;;;;10518347;28;20214;-79
2022/04/27 01:34:00;;;;;;;34.50;19.57;;;5.70;1.00;;;;;;10503289;28;20281;-79
2022/04/27 01:39:24;;;;;;;35.77;20.17;;;5.70;1.00;;;;;;10477913;28;20195;-79
2022/04/27 01:44:45;;;;;;;33.03;19.53;;;5.80;1.00;;;;;;10463614;28;20430;-80
2022/04/27 01:50:07;;;;;;;30.17;18.47;;;5.80;1.00;;;;;;10487650;28;20222;-79
2022/04/27 01:55:28;;;;;;;29.27;17.50;;;5.70;1.00;;;;;;10454125;28;20188;-79
2022/04/27 02:00:50;;;;;;;30.70;20.10;;;5.70;1.00;;;;;;10483384;28;20568;-79
2022/04/27 02:06:16;;;;;;;30.67;19.53;;;5.70;1.00;;;;;;10485153;28;20450;-80
2022/04/27 02:11:38;;;;;;;26.00;16.77;;;5.60;1.00;;;;;;10512969;28;20234;-80
2022/04/27 02:17:00;;;;;;;25.37;16.17;;;5.50;1.00;;;;;;10526685;28;20201;-79
2022/04/27 02:22:22;;;;;;;28.03;18.00;;;5.50;1.00;;;;;;10510439;28;20200;-79
2022/04/27 02:27:43;;;;;;;31.27;18.70;;;5.40;1.00;;;;;;10484564;28;20429;-79
2022/04/27 02:33:05;;;;;;;26.73;15.97;;;5.30;1.00;;;;;;10475103;28;20225;-80
2022/04/27 02:38:29;;;;;;;34.80;19.23;;;5.20;1.00;;;;;;10525010;28;20480;-79
2022/04/27 02:43:55;;;;;;;40.67;21.60;;;5.10;1.00;;;;;;10497336;28;20202;-79
2022/04/27 02:54:56;;;;;;;37.80;22.43;;;5.10;1.00;;;;;;10503611;28;20216;-79
2022/04/27 03:00:18;;;;;;;36.17;20.57;;;4.90;1.00;;;;;;10509927;28;20202;-79
2022/04/27 03:05:40;;;;;;;37.10;22.17;;;4.90;1.00;;;;;;10482665;28;20201;-79
2022/04/27 03:11:02;;;;;;;37.80;19.87;;;4.90;1.00;;;;;;10497193;28;20429;-79
2022/04/27 03:16:44;;;;;;;33.53;18.53;;;4.80;1.00;;;;;;10527596;28;20391;-79
2022/04/27 03:22:06;;;;;;;33.23;20.53;;;4.70;1.00;;;;;;10495022;28;20196;-79
2022/04/27 03:27:27;;;;;;;29.97;18.60;;;4.70;1.00;;;;;;10482274;28;20709;-79
2022/04/27 03:32:48;;;;;;;32.53;17.80;;;4.70;1.00;;;;;;10467780;28;20228;-80
2022/04/27 03:38:10;;;;;;;36.30;18.13;;;4.70;1.00;;;;;;10508356;28;20196;-80
2022/04/27 03:43:31;;;;;;;31.17;17.17;;;4.70;1.00;;;;;;10515117;28;20196;-79
2022/04/27 03:48:52;;;;;;;29.73;18.47;;;4.60;1.00;;;;;;10452955;28;20288;-79
2022/04/27 03:54:14;;;;;;;30.93;17.90;;;4.60;1.00;;;;;;10479028;28;20212;-80
2022/04/27 03:59:35;;;;;;;29.40;17.70;;;4.60;1.00;;;;;;10507213;28;20274;-80
2022/04/27 04:04:56;;;;;;;30.13;18.17;;;4.60;1.00;;;;;;10503046;28;20192;-80
2022/04/27 04:10:19;;;;;;;32.00;19.10;;;4.60;1.00;;;;;;10469216;28;20542;-78
2022/04/27 04:15:43;;;;;;;33.40;19.13;;;4.60;1.00;;;;;;10522707;28;20453;-79
2022/04/27 04:21:24;;;;;;;36.13;19.57;;;4.50;1.00;;;;;;10520528;28;20241;-79
2022/04/27 04:32:37;;;;;;;31.40;16.40;;;4.70;1.00;;;;;;10478903;28;20468;-79
2022/04/27 04:38:20;;;;;;;27.53;16.30;;;4.90;1.00;;;;;;10478840;28;20185;-80
2022/04/27 04:43:43;;;;;;;35.63;18.30;;;5.00;1.00;;;;;;10457439;28;20272;-79
2022/04/27 04:49:06;;;;;;;31.80;18.23;;;5.20;1.00;;;;;;10506823;28;20225;-79
2022/04/27 04:55:04;;;;;;;29.40;16.43;;;5.30;1.00;;;;;;10492747;28;20205;-80
2022/04/27 05:00:48;;;;;;;27.47;15.30;;;5.50;1.00;;;;;;10464016;28;20278;-79
2022/04/27 05:06:21;;;;;;;25.80;15.57;;;5.70;1.00;;;;;;10464182;28;20204;-79
2022/04/27 05:12:15;;;;;;;25.13;14.97;;;5.80;1.00;;;;;;10520987;28;20227;-79
2022/04/27 05:17:57;;;;;;;25.27;16.40;;;6.00;1.00;;;;;;10518853;28;20390;-79
2022/04/27 05:23:37;;;;;;;135.17;63.00;;;6.20;1.00;;;;;;10514108;28;20233;-79
2022/04/27 05:35:15;;;;;;;84.73;36.80;;;6.60;1.00;;;;;;10480139;28;20208;-79
2022/04/27 05:40:55;;;;;;;51.27;24.53;;;6.80;1.00;;;;;;10506615;28;20230;-79
2022/04/27 05:46:55;;;;;;;29.27;17.07;;;7.00;1.00;;;;;;10497871;28;20223;-79
2022/04/27 05:52:22;;;;;;;28.10;15.23;;;7.20;1.00;;;;;;10471062;28;20252;-80
2022/04/27 05:58:15;;;;;;;26.63;16.23;;;7.60;1.00;;;;;;10459153;28;20300;-79
2022/04/27 06:03:56;;;;;;;27.03;14.60;;;8.50;1.00;;;;;;10459513;28;20245;-79
2022/04/27 06:09:19;;;;;;;21.80;14.57;;;9.40;1.00;;;;;;10490366;28;20529;-80
2022/04/27 06:14:50;;;;;;;22.47;12.93;;;10.10;99.90;;;;;;10530059;28;20209;-80
2022/04/27 06:20:19;;;;;;;32.77;13.17;;;10.70;99.90;;;;;;10502183;28;20200;-80
2022/04/27 06:25:41;;;;;;;23.60;14.43;;;11.20;1.00;;;;;;10501510;28;20258;-80
2022/04/27 06:31:05;;;;;;;25.10;15.17;;;11.50;99.90;;;;;;10461515;28;20234;-80
2022/04/27 06:36:27;;;;;;;22.33;13.50;;;11.80;99.90;;;;;;10498251;28;20191;-80
2022/04/27 06:41:50;;;;;;;20.40;13.13;;;12.30;99.90;;;;;;10502722;28;20199;-80
2022/04/27 06:47:30;;;;;;;18.70;13.02;;;12.50;1.00;;;;;;10491832;28;20197;-79
2022/04/27 06:53:10;;;;;;;19.63;14.00;;;12.80;8.90;;;;;;10483569;28;20540;-80
2022/04/27 06:58:50;;;;;;;21.77;14.15;;;13.00;1.00;;;;;;10482737;28;20198;-81
2022/04/27 07:04:19;;;;;;;22.40;14.25;;;13.40;92.00;;;;;;10502720;28;20196;-80
2022/04/27 07:09:41;;;;;;;19.60;13.73;;;13.40;93.30;;;;;;10498304;28;20230;-80
2022/04/27 07:15:03;;;;;;;17.83;13.88;;;13.60;93.50;;;;;;10495673;28;20288;-79
2022/04/27 07:20:24;;;;;;;19.10;12.63;;;14.20;91.70;;;;;;10476750;28;20206;-79
2022/04/27 07:25:46;;;;;;;12.32;9.10;;;14.50;90.20;;;;;;10516180;28;20304;-79
2022/04/27 07:31:08;;;;;;;9.75;7.53;;;14.60;89.70;;;;;;10498467;28;20278;-79
2022/04/27 07:36:29;;;;;;;10.70;8.13;;;14.90;85.30;;;;;;10498293;28;20208;-79
2022/04/27 07:41:51;;;;;;;9.73;7.30;;;15.10;99.90;;;;;;10518201;28;20194;-79
2022/04/27 07:47:13;;;;;;;15.57;11.35;;;15.40;99.90;;;;;;10490718;28;20195;-79
2022/04/27 07:52:34;;;;;;;11.35;8.98;;;15.70;1.00;;;;;;10511652;28;20224;-79
2022/04/27 07:57:56;;;;;;;7.97;6.55;;;15.20;1.00;;;;;;10516093;28;20264;-83
2022/04/27 08:03:18;;;;;;;9.20;7.68;;;15.80;1.00;;;;;;10517680;28;20240;-79
2022/04/27 08:08:40;;;;;;;7.82;5.88;;;16.80;1.00;;;;;;10539849;28;20221;-78
2022/04/27 08:14:01;;;;;;;12.40;7.90;;;16.60;99.90;;;;;;10498449;28;20215;-79
2022/04/27 08:19:23;;;;;;;10.57;6.47;;;16.70;1.00;;;;;;10475319;28;20199;-78
2022/04/27 08:24:44;;;;;;;8.15;6.35;;;16.80;1.00;;;;;;10478529;28;20226;-78
2022/04/27 08:30:06;;;;;;;9.35;5.85;;;17.30;37.70;;;;;;10473741;28;20568;-79
2022/04/27 08:35:28;;;;;;;6.60;5.28;;;17.70;1.00;;;;;;10483186;28;20195;-79
2022/04/27 08:40:49;;;;;;;9.47;5.67;;;17.90;99.90;;;;;;10511498;28;20449;-79
2022/04/27 08:46:14;;;;;;;6.90;4.72;;;17.50;99.90;;;;;;10498729;28;20469;-84
2022/04/27 08:51:37;;;;;;;6.65;5.03;;;17.90;1.00;;;;;;10498110;28;20240;-79
2022/04/27 08:56:58;;;;;;;8.27;5.55;;;18.30;1.00;;;;;;10499249;28;20195;-79
2022/04/27 09:02:24;;;;;;;7.32;4.88;;;19.00;99.90;;;;;;10515107;28;20266;-80
2022/04/27 09:07:50;;;;;;;6.57;4.07;;;19.70;1.00;;;;;;10519747;28;20191;-84
2022/04/27 09:13:11;;;;;;;5.15;4.00;;;19.70;99.90;;;;;;10521774;28;20232;-80
2022/04/27 09:25:07;;;;;;;5.15;3.80;;;20.60;99.90;;;;;;10346477;28;20240;-80
2022/04/27 09:30:30;;;;;;;5.72;4.45;;;20.90;99.90;;;;;;10317794;28;20238;-80
2022/04/27 09:35:52;;;;;;;7.00;3.92;;;20.80;1.00;;;;;;10302802;28;20579;-81
2022/04/27 09:41:13;;;;;;;8.20;4.28;;;21.00;1.00;;;;;;10345531;28;20272;-81
2022/04/27 09:46:41;;;;;;;5.03;4.00;;;20.90;12.40;;;;;;10345481;28;20204;-80
2022/04/27 09:52:05;;;;;;;4.35;3.35;;;21.60;1.00;;;;;;10337007;28;20241;-80
2022/04/27 09:57:28;;;;;;;7.28;3.65;;;21.90;99.90;;;;;;10468496;28;20196;-81
2022/04/27 10:02:52;;;;;;;6.00;4.47;;;22.00;1.00;;;;;;10461947;28;20387;-82
2022/04/27 10:08:14;;;;;;;5.70;4.20;;;21.40;99.90;;;;;;10536491;28;20500;-83
2022/04/27 10:13:37;;;;;;;7.05;3.80;;;21.20;99.90;;;;;;10493879;28;20231;-84
2022/04/27 10:18:58;;;;;;;6.72;3.63;;;21.70;99.90;;;;;;10460265;28;20208;-79
2022/04/27 10:24:42;;;;;;;6.75;3.30;;;22.10;1.00;;;;;;10497602;28;20529;-80
2022/04/27 10:30:09;;;;;;;5.95;3.88;;;22.40;1.00;;;;;;10506624;28;20517;-81
2022/04/27 10:35:31;;;;;;;23.58;16.80;;;22.80;1.00;;;;;;10504773;28;20551;-81
2022/04/27 10:41:04;;;;;;;5.82;4.03;;;22.70;99.90;;;;;;10505188;28;20206;-80
2022/04/27 10:46:39;;;;;;;6.63;3.97;;;22.00;99.90;;;;;;10502179;28;20441;-82
2022/04/27 10:52:06;;;;;;;7.78;4.32;;;22.00;1.00;;;;;;10505272;28;20563;-80
2022/04/27 10:57:30;;;;;;;12.00;4.88;;;22.10;99.50;;;;;;10477112;28;20203;-81
2022/04/27 11:02:53;;;;;;;7.18;3.50;;;21.80;99.90;;;;;;10478195;28;20234;-81
2022/04/27 11:08:42;;;;;;;5.43;3.60;;;21.90;99.90;;;;;;10542074;28;20225;-81
2022/04/27 11:14:06;;;;;;;4.60;3.35;;;22.40;99.90;;;;;;10514686;28;20247;-81
2022/04/27 11:19:36;;;;;;;8.07;3.65;;;22.40;1.00;;;;;;10513688;28;20198;-81
2022/04/27 11:25:00;;;;;;;4.57;2.95;;;22.40;99.90;;;;;;10494454;28;20232;-80
2022/04/27 11:30:22;;;;;;;5.10;3.08;;;22.50;99.90;;;;;;10512994;28;20223;-81
2022/04/27 11:35:47;;;;;;;6.60;3.85;;;21.10;1.00;;;;;;10488811;28;20218;-81
2022/04/27 11:41:20;;;;;;;7.47;3.20;;;21.80;99.90;;;;;;10479038;28;20193;-81
2022/04/27 11:54:07;;;;;;;4.05;2.47;;;21.40;99.90;;;;;;10476862;28;20552;-81
2022/04/27 11:59:45;;;;;;;3.20;2.28;;;21.70;1.00;;;;;;10461472;28;20497;-80
2022/04/27 12:05:07;;;;;;;3.90;2.35;;;21.90;1.00;;;;;;10508507;28;20218;-80
2022/04/27 12:10:29;;;;;;;4.30;2.63;;;21.40;1.00;;;;;;10509932;28;20280;-78
2022/04/27 12:15:52;;;;;;;6.03;2.20;;;21.50;99.90;;;;;;10500834;28;20207;-80
2022/04/27 12:21:27;;;;;;;7.32;2.40;;;21.00;1.00;;;;;;10513930;28;20187;-81
2022/04/27 12:26:49;;;;;;;4.72;2.30;;;20.60;99.90;;;;;;10498758;28;20231;-80
2022/04/27 12:32:11;;;;;;;5.90;2.50;;;20.50;1.00;;;;;;10505471;28;20250;-80
2022/04/27 12:37:36;;;;;;;2.95;2.13;;;19.70;1.00;;;;;;10513277;28;20222;-80
2022/04/27 12:42:59;;;;;;;10.52;6.38;;;19.60;1.00;;;;;;10515967;28;20199;-79
2022/04/27 12:48:29;;;;;;;13.52;3.55;;;19.10;1.00;;;;;;10518830;28;20199;-82
2022/04/27 12:53:52;;;;;;;2.85;2.03;;;19.30;99.90;;;;;;10514946;28;20302;-79
2022/04/27 12:59:14;;;;;;;7.47;3.85;;;19.40;1.00;;;;;;10513177;28;20242;-79
2022/04/27 13:04:35;;;;;;;7.97;4.95;;;19.60;13.40;;;;;;10513421;28;20206;-79
2022/04/27 13:15:36;;;;;;;6.15;2.50;;;19.40;1.00;;;;;;10496387;28;20230;-80
2022/04/27 13:20:58;;;;;;;4.90;2.78;;;18.50;99.90;;;;;;10485693;28;20183;-81
2022/04/27 13:26:19;;;;;;;5.15;3.05;;;18.70;1.00;;;;;;10514566;28;20281;-80
2022/04/27 13:31:41;;;;;;;6.25;2.90;;;18.80;99.90;;;;;;10506500;28;20305;-79
2022/04/27 13:37:02;;;;;;;4.90;3.13;;;18.60;1.00;;;;;;10477538;28;20191;-79
2022/04/27 13:42:24;;;;;;;4.18;2.50;;;18.40;1.00;;;;;;10476817;28;20196;-79
2022/04/27 13:47:45;;;;;;;4.55;2.33;;;18.30;1.00;;;;;;10498769;28;20213;-79
2022/04/27 13:53:07;;;;;;;5.53;2.85;;;18.30;99.90;;;;;;10514833;28;20250;-79
2022/04/27 13:58:29;;;;;;;5.28;2.92;;;18.40;1.00;;;;;;10508455;28;20202;-79
2022/04/27 14:04:10;;;;;;;4.43;1.92;;;18.10;1.00;;;;;;10521207;28;20200;-80
2022/04/27 14:09:32;;;;;;;4.45;2.35;;;17.90;99.90;;;;;;10546312;28;20212;-79
2022/04/27 14:14:53;;;;;;;4.47;2.42;;;17.60;1.00;;;;;;10501981;28;20301;-79
2022/04/27 14:20:15;;;;;;;3.55;2.30;;;17.40;99.90;;;;;;10519760;28;20214;-79
2022/04/27 14:25:40;;;;;;;6.40;2.47;;;17.10;99.90;;;;;;10537509;28;20487;-78
2022/04/27 14:31:04;;;;;;;13.25;7.03;;;17.10;99.90;;;;;;10541802;28;20444;-81
2022/04/27 14:36:26;;;;;;;6.53;3.13;;;17.10;99.90;;;;;;10506078;28;20191;-79
2022/04/27 14:41:47;;;;;;;7.65;4.10;;;16.60;99.90;;;;;;10505259;28;20201;-78
2022/04/27 14:47:08;;;;;;;8.82;3.13;;;16.20;1.00;;;;;;10478593;28;20585;-80
2022/04/27 14:52:31;;;;;;;13.18;4.15;;;16.20;88.30;;;;;;10479632;28;20229;-78
2022/04/27 14:57:53;;;;;;;11.95;4.15;;;15.90;1.00;;;;;;10520971;28;20194;-79
2022/04/27 15:03:15;;;;;;;9.02;2.88;;;15.80;1.00;;;;;;10519877;28;20206;-80
2022/04/27 15:08:36;;;;;;;8.63;4.18;;;15.40;1.00;;;;;;10514849;28;20211;-79
2022/04/27 15:13:57;;;;;;;11.05;3.67;;;15.20;99.90;;;;;;10498292;28;20300;-78
2022/04/27 15:19:19;;;;;;;7.07;2.95;;;15.00;1.00;;;;;;10523478;28;20210;-78
2022/04/27 15:24:40;;;;;;;7.00;3.17;;;14.90;1.00;;;;;;10460771;28;20227;-79
2022/04/27 15:30:01;;;;;;;10.73;3.30;;;14.80;1.00;;;;;;10482409;28;20524;-79
2022/04/27 15:35:26;;;;;;;9.07;2.55;;;14.60;1.00;;;;;;10518739;28;20192;-78
2022/04/27 15:40:49;;;;;;;11.55;2.72;;;14.40;99.90;;;;;;10503860;28;20205;-79
2022/04/27 15:46:09;;;;;;;6.00;2.33;;;14.30;1.00;;;;;;10478185;28;20402;-79
2022/04/27 15:51:31;;;;;;;7.47;3.25;;;14.10;1.00;;;;;;10487959;28;20244;-79
2022/04/27 15:56:52;;;;;;;8.30;3.47;;;14.00;99.90;;;;;;10511436;28;20526;-80
2022/04/27 16:02:13;;;;;;;7.97;2.97;;;13.80;1.00;;;;;;10513556;28;20226;-79
2022/04/27 16:07:37;;;;;;;5.78;2.15;;;13.60;99.90;;;;;;10481038;28;20198;-79
2022/04/27 16:12:59;;;;;;;9.75;2.63;;;13.50;1.00;;;;;;10508430;28;20220;-79
2022/04/27 16:18:21;;;;;;;6.20;2.33;;;13.30;99.90;;;;;;10513913;28;20405;-79
2022/04/27 16:23:42;;;;;;;5.55;2.75;;;13.10;1.00;;;;;;10483288;28;20234;-79
2022/04/27 16:29:04;;;;;;;10.57;5.63;;;12.90;1.00;;;;;;10451299;28;20197;-79
2022/04/27 16:34:25;;;;;;;5.50;3.17;;;12.70;1.00;;;;;;10465737;28;20233;-79
2022/04/27 16:39:47;;;;;;;9.15;3.10;;;12.60;1.00;;;;;;10479267;28;20208;-79
2022/04/27 16:45:08;;;;;;;11.38;2.55;;;12.60;99.90;;;;;;10473127;28;20498;-79
2022/04/27 16:50:29;;;;;;;8.43;3.10;;;12.40;99.90;;;;;;10464206;28;20205;-79
2022/04/27 16:55:50;;;;;;;6.33;3.40;;;12.20;42.50;;;;;;10478355;28;20482;-79
2022/04/27 17:01:12;;;;;;;7.18;3.00;;;12.00;48.10;;;;;;10494874;28;20194;-79
2022/04/27 17:06:35;;;;;;;8.83;3.83;;;11.90;1.00;;;;;;10520504;28;20388;-78
2022/04/27 17:11:56;;;;;;;6.35;4.13;;;11.70;1.00;;;;;;10507567;28;20222;-79
2022/04/27 17:17:18;;;;;;;5.20;2.33;;;11.60;59.10;;;;;;10519922;28;20205;-79
2022/04/27 17:22:40;;;;;;;8.07;3.00;;;11.40;99.90;;;;;;10477479;28;20221;-79
2022/04/27 17:28:01;;;;;;;6.23;3.63;;;11.30;1.00;;;;;;10476518;28;20270;-79
2022/04/27 17:33:22;;;;;;;16.60;5.37;;;11.10;99.90;;;;;;10463143;28;20403;-79
2022/04/27 17:38:43;;;;;;;12.87;4.97;;;11.10;99.90;;;;;;10476680;28;20197;-79
2022/04/27 17:44:04;;;;;;;8.13;4.33;;;11.00;1.00;;;;;;10514889;28;20237;-78
2022/04/27 17:49:26;;;;;;;7.67;3.83;;;10.80;1.00;;;;;;10490061;28;20197;-79
2022/04/27 17:54:47;;;;;;;11.40;5.93;;;10.60;7.20;;;;;;10464971;28;20309;-79
2022/04/27 18:00:11;;;;;;;14.80;7.80;;;10.30;24.20;;;;;;10480348;28;20194;-78
2022/04/27 18:05:34;;;;;;;12.17;6.27;;;10.40;1.00;;;;;;10470473;28;20406;-79
2022/04/27 18:10:55;;;;;;;18.20;8.00;;;10.40;99.90;;;;;;10491330;28;20211;-79
2022/04/27 18:16:17;;;;;;;21.47;8.77;;;10.30;99.90;;;;;;10514234;28;20203;-79
2022/04/27 18:21:38;;;;;;;20.03;6.33;;;10.20;1.00;;;;;;10517812;28;20500;-78
2022/04/27 18:27:01;;;;;;;18.30;6.77;;;10.00;1.00;;;;;;10480418;28;20242;-78
2022/04/27 18:32:23;;;;;;;16.07;5.43;;;9.90;1.00;;;;;;10481541;28;20217;-78
2022/04/27 18:37:44;;;;;;;14.23;6.40;;;9.70;1.00;;;;;;10518393;28;20190;-78
2022/04/27 18:49:57;;;;;;;6.63;3.93;;;9.40;1.00;;;;;;10513315;28;20198;-78
2022/04/27 18:54:27;;;;;;;9.50;3.50;;;9.30;1.00;;;;;;10504440;28;20208;-79
2022/04/27 18:59:49;;;;;;;7.47;3.13;;;9.30;1.00;;;;;;10524426;28;20201;-79
2022/04/27 19:05:10;;;;;;;8.50;4.60;;;9.20;1.00;;;;;;10497713;28;20236;-79
2022/04/27 19:10:32;;;;;;;6.23;4.23;;;9.20;1.00;;;;;;10476035;28;20196;-79
2022/04/27 19:15:53;;;;;;;7.43;4.07;;;9.20;1.00;;;;;;10507594;28;20451;-78
2022/04/27 19:21:15;;;;;;;8.13;3.50;;;9.10;1.00;;;;;;10509612;28;20221;-79
2022/04/27 19:26:38;;;;;;;8.47;3.77;;;9.00;1.00;;;;;;10481285;28;20534;-78
2022/04/27 19:32:03;;;;;;;6.30;3.43;;;9.10;1.00;;;;;;10481610;28;20465;-79
2022/04/27 19:37:24;;;;;;;7.43;3.50;;;9.00;1.00;;;;;;10467669;28;20196;-79
2022/04/27 19:42:45;;;;;;;10.47;5.27;;;9.00;1.00;;;;;;10471657;28;20193;-79
2022/04/27 19:48:07;;;;;;;11.20;5.67;;;9.00;1.00;;;;;;10508949;28;20200;-78
2022/04/27 19:53:29;;;;;;;14.30;5.10;;;8.90;1.00;;;;;;10510894;28;20226;-79
2022/04/27 19:58:51;;;;;;;19.20;5.33;;;8.80;1.00;;;;;;10481612;28;20191;-78
2022/04/27 20:04:12;;;;;;;17.47;6.73;;;8.60;1.00;;;;;;10482595;28;20271;-78
2022/04/27 20:09:34;;;;;;;26.27;7.90;;;8.40;1.00;;;;;;10512006;28;20192;-79
2022/04/27 20:14:55;;;;;;;30.83;8.87;;;8.40;1.00;;;;;;10540869;28;20397;-78
2022/04/27 20:20:16;;;;;;;19.30;6.97;;;8.40;1.00;;;;;;10521184;28;20236;-78
2022/04/27 20:25:39;;;;;;;31.00;8.20;;;8.30;1.00;;;;;;10519837;28;20239;-78
2022/04/27 20:31:01;;;;;;;18.30;7.07;;;8.20;95.80;;;;;;10506821;28;20229;-78
2022/04/27 20:36:23;;;;;;;15.03;5.73;;;8.30;1.00;;;;;;10487374;28;20194;-78
2022/04/27 20:41:45;;;;;;;16.63;5.73;;;8.30;1.00;;;;;;10467846;28;20206;-78
2022/04/27 20:47:09;;;;;;;13.33;6.00;;;;;;;;;;10538103;28;20384;-78
2022/04/27 20:52:30;;;;;;;11.83;6.10;;;8.10;1.00;;;;;;10519678;28;20216;-78
2022/04/27 20:57:51;;;;;;;7.57;4.30;;;8.10;99.90;;;;;;10479976;28;20249;-78
2022/04/27 21:03:13;;;;;;;12.97;5.10;;;8.00;99.90;;;;;;10471898;28;20192;-78
2022/04/27 21:08:35;;;;;;;9.57;5.33;;;7.90;1.00;;;;;;10504548;28;20196;-79
2022/04/27 21:13:56;;;;;;;10.10;5.07;;;8.00;99.90;;;;;;10518677;28;20305;-78
2022/04/27 21:19:18;;;;;;;11.70;5.60;;;8.10;99.90;;;;;;10520491;28;20491;-78
2022/04/27 21:24:39;;;;;;;9.63;4.27;;;8.00;1.00;;;;;;10491118;28;20236;-78
2022/04/27 21:30:01;;;;;;;9.37;4.43;;;8.10;65.60;;;;;;10504531;28;20239;-78
2022/04/27 21:35:22;;;;;;;8.43;4.67;;;8.00;1.00;;;;;;10495112;28;20523;-78
2022/04/27 21:40:44;;;;;;;7.87;3.77;;;7.90;99.90;;;;;;10477348;28;20234;-78
2022/04/27 21:46:05;;;;;;;8.73;4.53;;;8.10;99.90;;;;;;10480059;28;20434;-78
2022/04/27 21:51:27;;;;;;;8.47;4.10;;;8.10;99.90;;;;;;10477921;28;20287;-79
2022/04/27 21:56:49;;;;;;;11.77;4.47;;;8.10;1.00;;;;;;10498451;28;20188;-79
2022/04/27 22:02:13;;;;;;;15.60;5.90;;;8.00;99.90;;;;;;10518094;28;20243;-78
2022/04/27 22:07:35;;;;;;;16.33;6.43;;;7.80;1.00;;;;;;10476687;28;20497;-78
2022/04/27 22:12:57;;;;;;;20.17;7.00;;;7.70;99.90;;;;;;10520719;28;20295;-80
2022/04/27 22:18:18;;;;;;;12.97;5.43;;;7.70;33.90;;;;;;10510595;28;20197;-80
2022/04/27 22:23:40;;;;;;;12.30;5.83;;;7.70;1.00;;;;;;10504061;28;20269;-79
2022/04/27 22:29:02;;;;;;;10.40;4.50;;;7.70;99.90;;;;;;10470050;28;20200;-80
2022/04/27 22:34:23;;;;;;;9.00;3.30;;;7.70;99.90;;;;;;10496713;28;20454;-80
2022/04/27 22:39:45;;;;;;;6.80;3.10;;;7.70;1.00;;;;;;10525201;28;20235;-78
2022/04/27 22:45:06;;;;;;;6.23;3.17;;;7.70;99.90;;;;;;10492536;28;20193;-80
2022/04/27 22:50:27;;;;;;;4.97;2.63;;;7.70;99.90;;;;;;10483461;28;20455;-80
2022/04/27 22:55:50;;;;;;;5.90;3.00;;;7.80;1.00;;;;;;10521093;28;20229;-79
2022/04/27 23:01:11;;;;;;;4.63;2.40;;;7.70;1.00;;;;;;10524193;28;20215;-78
2022/04/27 23:06:32;;;;;;;5.90;2.53;;;7.80;1.00;;;;;;10482790;28;20220;-78
2022/04/27 23:11:54;;;;;;;9.47;3.23;;;7.70;99.90;;;;;;10487212;28;20386;-78
2022/04/27 23:17:16;;;;;;;3.80;2.03;;;7.70;1.00;;;;;;10484362;28;20274;-78
2022/04/27 23:22:40;;;;;;;4.37;2.33;;;7.60;1.00;;;;;;10493304;28;20187;-80
2022/04/27 23:28:01;;;;;;;7.07;2.00;;;7.60;99.90;;;;;;10508222;28;20233;-80
2022/04/27 23:33:23;;;;;;;5.27;1.73;;;7.50;1.00;;;;;;10491787;28;20582;-80
2022/04/27 23:38:45;;;;;;;5.60;2.33;;;7.40;1.00;;;;;;10453355;28;20201;-79
2022/04/27 23:44:07;;;;;;;5.10;2.10;;;7.30;1.00;;;;;;10488988;28;20197;-80
2022/04/27 23:49:28;;;;;;;3.07;1.77;;;7.40;99.90;;;;;;10508332;28;20272;-80
2022/04/27 23:54:49;;;;;;;5.87;1.77;;;7.40;1.00;;;;;;10508812;28;20222;-80
